Accueil
METAR-TAF:

METAR-TAF

Aéroports :

Orange, France

Base aérienne 115 Orange-Caritat

latitude: 44-08N, longitude: 004-50E, altitude: 60 m

Observation

Le bulletin a été fait il y a 26 minutes, à 06:30 UTC
Vent 2 kt de direction variable
Température 13°C
Humidité 82%
Pression 1018 hPa
Visibilité 10 km ou plus
pas de nuages en-dessous de 1500 mètres et pas de cumulonimbus.

METAR: LFMO 220630Z AUTO VRB02KT CAVOK 13/10 Q1018 NOSIG

Heure: 08:56 (06:56 UTC)

Prévision

Le bulletin a été fait il y a 4 heures et 56 minutes, à 02:00 UTC
Prévision valable du 22 à 03 UTC au 23 à 03 UTC
Vent 2 kt de direction variable
Visibilité 10 km ou plus
pas de nuages en-dessous de 1500 mètres et pas de cumulonimbus.
Temporairement
du 22 à 14 UTC au 22 à 18 UTC
Vent 10 kt de sud/sud-ouest

TAF: LFMO 220200Z 2203/2303 VRB02KT CAVOK TEMPO 2214/2218 20010KT

Observations et prévisions météorologiques de plus de 4000 aéroports (messages METAR et TAF).

Les stations disponibles sont représentées par des disques jaunes et rouges sur la carte.

Passer la souris dessus pour voir le nom de la station.

Cliquer dessus pour voir les observations et prévisions météorologiques.

Pour changer de carte: cliquez sur les boutons verts avec une croix noire pour zoomer, sur le bouton vert avec un tiret pour effectuer un zoom arrière, ou sur les flèches vertes pour les cartes adjacentes.


METAR-TAF: